Time;durP1;ratioP1;P1;durP2;ratioP2;P2;SDS_P1;SDS_P2;PMS_P1;PMS_P2;Temp;Humidity;BMP_temperature;BMP_pressure;BME280_temperature;BME280_humidity;BME280_pressure;Samples;Min_cycle;Max_cycle;Signal;HPM_P1;HPM_P2
2020/12/09 00:00:11;;;;;;;29.33;20.05;;;;;;;;;;5150623;27;20023;-62
2020/12/09 00:02:36;;;;;;;28.67;21.15;;;;;;;;;;5147850;27;20045;-62
2020/12/09 00:05:04;;;;;;;31.95;23.00;;;;;;;;;;5150982;27;20031;-62
2020/12/09 00:07:34;;;;;;;27.98;21.25;;;;;;;;;;5148526;27;20031;-62
2020/12/09 00:09:59;;;;;;;30.45;22.13;;;;;;;;;;5147459;27;20034;-64
2020/12/09 00:12:27;;;;;;;35.50;22.70;;;;;;;;;;5148809;27;20038;-62
2020/12/09 00:14:52;;;;;;;29.88;22.02;;;;;;;;;;5150411;27;20027;-63
2020/12/09 00:17:18;;;;;;;27.63;20.70;;;;;;;;;;5152267;27;20578;-62
2020/12/09 00:19:43;;;;;;;27.02;20.75;;;;;;;;;;5152784;27;20034;-62
2020/12/09 00:22:08;;;;;;;30.58;21.50;;;;;;;;;;5136682;27;20045;-63
2020/12/09 00:24:34;;;;;;;35.65;23.40;;;;;;;;;;5153585;27;20030;-62
2020/12/09 00:26:59;;;;;;;28.90;21.83;;;;;;;;;;5153465;27;20670;-62
2020/12/09 00:29:24;;;;;;;29.05;21.08;;;;;;;;;;5149027;27;20141;-62
2020/12/09 00:31:50;;;;;;;28.48;21.38;;;;;;;;;;5154364;27;20333;-63
2020/12/09 00:34:15;;;;;;;28.20;21.45;;;;;;;;;;5152040;27;20490;-62
2020/12/09 00:36:42;;;;;;;31.00;22.30;;;;;;;;;;5151013;27;20579;-62
2020/12/09 00:39:07;;;;;;;30.20;21.83;;;;;;;;;;5149608;27;20043;-62
2020/12/09 00:41:32;;;;;;;32.58;22.85;;;;;;;;;;5134773;27;20156;-62
2020/12/09 00:43:58;;;;;;;34.05;23.20;;;;;;;;;;5153276;27;20127;-62
2020/12/09 00:46:28;;;;;;;32.10;23.42;;;;;;;;;;5150302;27;20463;-62
2020/12/09 00:48:54;;;;;;;30.38;22.70;;;;;;;;;;5153220;27;20022;-62
2020/12/09 00:51:22;;;;;;;30.52;22.65;;;;;;;;;;5151454;27;20041;-62
2020/12/09 00:53:48;;;;;;;26.70;20.65;;;;;;;;;;5153032;27;20084;-62
2020/12/09 00:56:13;;;;;;;32.92;22.65;;;;;;;;;;5150847;27;20042;-62
2020/12/09 00:58:39;;;;;;;31.48;23.00;;;;;;;;;;5141621;27;20472;-62
2020/12/09 01:01:05;;;;;;;28.05;20.98;;;;;;;;;;5135178;27;20030;-62
2020/12/09 01:03:31;;;;;;;29.40;20.50;;;;;;;;;;5150621;27;20091;-62
2020/12/09 01:05:57;;;;;;;25.80;20.63;;;;;;;;;;5152930;27;20023;-62
2020/12/09 01:08:22;;;;;;;26.25;18.77;;;;;;;;;;5150871;27;20087;-62
2020/12/09 01:10:48;;;;;;;33.40;22.83;;;;;;;;;;5153156;27;20111;-62
2020/12/09 01:13:15;;;;;;;30.65;20.92;;;;;;;;;;5147220;27;20038;-62
2020/12/09 01:15:41;;;;;;;31.17;21.88;;;;;;;;;;5137879;27;20381;-62
2020/12/09 01:18:07;;;;;;;29.52;22.05;;;;;;;;;;5134168;27;20344;-62
2020/12/09 01:20:32;;;;;;;29.00;20.77;;;;;;;;;;5151464;27;20034;-62
2020/12/09 01:22:58;;;;;;;34.35;23.38;;;;;;;;;;5150486;27;20115;-62
2020/12/09 01:25:23;;;;;;;28.73;20.13;;;;;;;;;;5151863;27;20034;-62
2020/12/09 01:27:48;;;;;;;31.25;22.90;;;;;;;;;;5152357;27;20031;-62
2020/12/09 01:30:14;;;;;;;32.67;21.45;;;;;;;;;;5147475;27;20038;-62
2020/12/09 01:32:39;;;;;;;29.88;22.40;;;;;;;;;;5152172;27;20030;-62
2020/12/09 01:35:04;;;;;;;32.30;22.00;;;;;;;;;;5151539;27;20097;-62
2020/12/09 01:37:30;;;;;;;31.95;22.23;;;;;;;;;;5148961;27;20056;-62
2020/12/09 01:39:55;;;;;;;30.58;23.05;;;;;;;;;;5152187;27;20103;-62
2020/12/09 01:42:20;;;;;;;27.42;22.70;;;;;;;;;;5151646;27;20069;-63
2020/12/09 01:44:46;;;;;;;31.83;24.70;;;;;;;;;;5151966;27;20427;-62
2020/12/09 01:47:12;;;;;;;46.22;25.08;;;;;;;;;;5150778;27;20052;-62
2020/12/09 01:49:38;;;;;;;32.05;24.75;;;;;;;;;;5148131;27;20083;-62
2020/12/09 01:52:04;;;;;;;41.28;27.33;;;;;;;;;;5150887;27;20102;-62
2020/12/09 01:54:33;;;;;;;33.05;27.15;;;;;;;;;;5151479;27;20023;-62
2020/12/09 01:57:06;;;;;;;37.72;27.70;;;;;;;;;;5148298;27;20034;-62
2020/12/09 01:59:31;;;;;;;34.10;26.25;;;;;;;;;;5151487;27;20031;-62
2020/12/09 02:01:56;;;;;;;36.50;25.13;;;;;;;;;;5147128;27;20423;-62
2020/12/09 02:04:22;;;;;;;34.45;24.50;;;;;;;;;;5150548;27;20195;-62
2020/12/09 02:06:50;;;;;;;36.97;25.80;;;;;;;;;;5151391;27;20031;-62
2020/12/09 02:09:16;;;;;;;34.08;24.77;;;;;;;;;;5149802;27;20037;-62
2020/12/09 02:11:41;;;;;;;34.13;24.40;;;;;;;;;;5151136;27;20520;-63
2020/12/09 02:14:06;;;;;;;32.15;23.20;;;;;;;;;;5150934;27;20057;-63
2020/12/09 02:16:32;;;;;;;32.75;23.48;;;;;;;;;;5150891;27;20587;-63
2020/12/09 02:18:57;;;;;;;27.08;23.10;;;;;;;;;;5149376;27;20027;-62
2020/12/09 02:21:22;;;;;;;32.70;22.50;;;;;;;;;;5149912;27;20039;-62
2020/12/09 02:23:48;;;;;;;27.98;22.95;;;;;;;;;;5151683;27;20463;-62
2020/12/09 02:26:13;;;;;;;31.52;24.17;;;;;;;;;;5150391;27;20075;-62
2020/12/09 02:28:38;;;;;;;31.45;23.90;;;;;;;;;;5145935;27;20018;-62
2020/12/09 02:31:04;;;;;;;34.33;23.08;;;;;;;;;;5151004;27;20034;-63
2020/12/09 02:33:29;;;;;;;29.90;23.63;;;;;;;;;;5150513;27;20035;-62
2020/12/09 02:35:54;;;;;;;27.50;22.65;;;;;;;;;;5149760;27;20069;-63
2020/12/09 02:38:20;;;;;;;36.38;24.15;;;;;;;;;;5149152;27;20073;-63
2020/12/09 02:40:45;;;;;;;29.95;23.92;;;;;;;;;;5151701;27;20046;-63
2020/12/09 02:43:10;;;;;;;38.40;23.33;;;;;;;;;;5150588;27;20497;-62
2020/12/09 02:45:36;;;;;;;32.42;24.17;;;;;;;;;;5147701;27;20026;-62
2020/12/09 02:48:01;;;;;;;28.73;22.77;;;;;;;;;;5150696;27;20397;-62
2020/12/09 02:50:27;;;;;;;31.63;23.45;;;;;;;;;;5148696;27;20031;-63
2020/12/09 02:52:52;;;;;;;34.40;24.63;;;;;;;;;;5137919;27;20022;-63
2020/12/09 02:55:18;;;;;;;35.47;26.13;;;;;;;;;;5145655;27;20023;-63
2020/12/09 02:57:46;;;;;;;32.78;23.88;;;;;;;;;;5150873;27;20039;-63
2020/12/09 03:00:12;;;;;;;32.00;25.05;;;;;;;;;;5149495;27;20030;-63
2020/12/09 03:02:37;;;;;;;32.97;24.08;;;;;;;;;;5149812;27;20063;-62
2020/12/09 03:05:02;;;;;;;35.65;26.02;;;;;;;;;;5147433;27;20037;-63
2020/12/09 03:07:28;;;;;;;35.15;25.77;;;;;;;;;;5148813;27;20045;-63
2020/12/09 03:09:53;;;;;;;38.30;24.40;;;;;;;;;;5151984;27;20023;-62
2020/12/09 03:12:18;;;;;;;32.28;23.40;;;;;;;;;;5131011;27;20039;-63
2020/12/09 03:14:44;;;;;;;36.60;24.10;;;;;;;;;;5150948;27;20038;-63
2020/12/09 03:17:09;;;;;;;26.75;20.88;;;;;;;;;;5150832;27;20306;-63
2020/12/09 03:19:34;;;;;;;32.28;23.42;;;;;;;;;;5150001;27;20034;-63
2020/12/09 03:22:00;;;;;;;32.85;21.75;;;;;;;;;;5148692;27;20043;-63
2020/12/09 03:24:25;;;;;;;30.00;22.80;;;;;;;;;;5150058;27;20031;-63
2020/12/09 03:26:50;;;;;;;33.00;22.63;;;;;;;;;;5150471;27;20041;-63
2020/12/09 03:29:16;;;;;;;33.42;22.17;;;;;;;;;;5148420;27;20051;-63
2020/12/09 03:31:43;;;;;;;32.83;22.67;;;;;;;;;;5150658;27;20027;-63
2020/12/09 03:34:08;;;;;;;29.20;21.73;;;;;;;;;;5149829;27;20348;-63
2020/12/09 03:36:34;;;;;;;32.38;22.73;;;;;;;;;;5149873;27;20019;-63
2020/12/09 03:38:59;;;;;;;33.13;24.20;;;;;;;;;;5139194;27;20035;-63
2020/12/09 03:41:24;;;;;;;32.78;23.30;;;;;;;;;;5149449;27;20046;-63
2020/12/09 03:43:50;;;;;;;28.35;22.65;;;;;;;;;;5150338;27;20084;-63
2020/12/09 03:46:15;;;;;;;33.65;22.05;;;;;;;;;;5149422;27;20117;-63
2020/12/09 03:48:41;;;;;;;28.92;23.33;;;;;;;;;;5148465;27;20196;-63
2020/12/09 03:51:06;;;;;;;30.33;23.05;;;;;;;;;;5149977;27;20041;-63
2020/12/09 03:53:32;;;;;;;34.70;25.00;;;;;;;;;;5149708;27;20027;-63
2020/12/09 03:55:59;;;;;;;31.48;23.83;;;;;;;;;;5150263;27;20110;-63
2020/12/09 03:58:24;;;;;;;32.42;23.42;;;;;;;;;;5148105;27;20052;-63
2020/12/09 04:00:49;;;;;;;29.63;22.88;;;;;;;;;;5150326;27;20031;-63
2020/12/09 04:03:14;;;;;;;34.50;22.92;;;;;;;;;;5149085;27;20053;-63
2020/12/09 04:05:40;;;;;;;35.60;23.85;;;;;;;;;;5150527;27;20088;-63
2020/12/09 04:08:05;;;;;;;33.15;24.40;;;;;;;;;;5148209;27;20035;-63
2020/12/09 04:10:30;;;;;;;31.83;24.25;;;;;;;;;;5149691;27;20061;-63
2020/12/09 04:12:56;;;;;;;31.85;24.15;;;;;;;;;;5151509;27;20513;-63
2020/12/09 04:15:21;;;;;;;30.50;22.92;;;;;;;;;;5152960;27;20035;-63
2020/12/09 04:17:46;;;;;;;30.35;22.63;;;;;;;;;;5151962;27;20026;-63
2020/12/09 04:20:12;;;;;;;31.98;23.13;;;;;;;;;;5152064;27;20031;-63
2020/12/09 04:22:38;;;;;;;34.80;24.98;;;;;;;;;;5135640;27;20429;-63
2020/12/09 04:25:03;;;;;;;29.35;24.05;;;;;;;;;;5153591;27;20145;-63
2020/12/09 04:27:29;;;;;;;37.00;23.60;;;;;;;;;;5152304;27;20358;-63
2020/12/09 04:29:54;;;;;;;33.53;24.08;;;;;;;;;;5153300;27;20038;-63
2020/12/09 04:32:19;;;;;;;33.95;24.15;;;;;;;;;;5152643;27;20034;-63
2020/12/09 04:34:45;;;;;;;32.72;24.52;;;;;;;;;;5151200;27;20043;-63
2020/12/09 04:37:11;;;;;;;34.67;24.77;;;;;;;;;;5152153;27;20434;-63
2020/12/09 04:39:37;;;;;;;32.42;24.63;;;;;;;;;;5154349;27;20022;-63
2020/12/09 04:42:03;;;;;;;36.78;23.55;;;;;;;;;;5153055;27;20603;-63
2020/12/09 04:44:29;;;;;;;30.05;23.25;;;;;;;;;;5145956;27;20121;-63
2020/12/09 04:47:01;;;;;;;29.00;24.05;;;;;;;;;;5153047;27;20122;-63
2020/12/09 04:49:39;;;;;;;30.02;23.08;;;;;;;;;;5134120;27;20030;-63
2020/12/09 04:52:14;;;;;;;32.25;24.13;;;;;;;;;;5150529;27;20130;-63
2020/12/09 04:54:41;;;;;;;29.23;23.67;;;;;;;;;;5149662;27;20034;-63
2020/12/09 04:57:30;;;;;;;29.17;23.58;;;;;;;;;;5152277;27;20026;-63
2020/12/09 05:00:00;;;;;;;31.23;23.70;;;;;;;;;;5149162;27;20551;-63
2020/12/09 05:02:53;;;;;;;29.23;22.35;;;;;;;;;;5150785;27;20050;-63
2020/12/09 05:05:21;;;;;;;30.08;22.58;;;;;;;;;;5154026;27;20035;-63
2020/12/09 05:07:48;;;;;;;34.22;24.50;;;;;;;;;;5152774;27;20456;-63
2020/12/09 05:10:16;;;;;;;35.65;24.13;;;;;;;;;;5151703;27;20422;-63
2020/12/09 05:12:47;;;;;;;33.95;23.92;;;;;;;;;;5147676;27;20483;-63
2020/12/09 05:15:19;;;;;;;33.97;24.38;;;;;;;;;;5151982;27;20042;-63
2020/12/09 05:18:07;;;;;;;31.55;22.88;;;;;;;;;;5136757;27;20694;-63
2020/12/09 05:20:38;;;;;;;32.88;23.05;;;;;;;;;;5148993;27;20047;-63
2020/12/09 05:23:05;;;;;;;29.27;23.10;;;;;;;;;;5151808;27;20030;-63
2020/12/09 05:25:38;;;;;;;30.52;23.00;;;;;;;;;;5153096;27;20030;-63
2020/12/09 05:28:05;;;;;;;30.70;24.10;;;;;;;;;;5153065;27;20130;-63
2020/12/09 05:30:42;;;;;;;34.95;24.63;;;;;;;;;;5148613;27;20350;-62
2020/12/09 05:33:09;;;;;;;33.40;23.88;;;;;;;;;;5151651;27;20030;-62
2020/12/09 05:35:34;;;;;;;33.88;24.30;;;;;;;;;;5151737;27;20040;-63
2020/12/09 05:38:14;;;;;;;29.13;22.70;;;;;;;;;;5151450;27;20344;-63
2020/12/09 05:40:44;;;;;;;34.83;23.63;;;;;;;;;;5146280;27;20031;-62
2020/12/09 05:43:15;;;;;;;31.50;21.98;;;;;;;;;;5151436;27;20022;-63
2020/12/09 05:45:41;;;;;;;31.98;21.95;;;;;;;;;;5145715;27;20099;-66
2020/12/09 05:48:25;;;;;;;32.08;23.38;;;;;;;;;;5149033;27;20035;-63
2020/12/09 05:50:58;;;;;;;35.03;22.90;;;;;;;;;;5147465;27;20023;-63
2020/12/09 05:53:25;;;;;;;29.52;22.85;;;;;;;;;;5149533;27;20106;-63
2020/12/09 05:55:57;;;;;;;29.30;23.10;;;;;;;;;;5136516;27;20372;-63
2020/12/09 05:58:24;;;;;;;34.50;23.75;;;;;;;;;;5149032;27;20038;-62
2020/12/09 06:01:10;;;;;;;38.42;24.30;;;;;;;;;;5152039;27;20611;-63
2020/12/09 06:03:37;;;;;;;30.42;24.13;;;;;;;;;;5151132;27;20027;-63
2020/12/09 06:06:27;;;;;;;32.33;25.40;;;;;;;;;;5151510;27;20115;-63
2020/12/09 06:08:54;;;;;;;29.55;22.13;;;;;;;;;;5147341;27;20409;-63
2020/12/09 06:11:31;;;;;;;30.95;23.52;;;;;;;;;;5132282;27;20031;-63
2020/12/09 06:13:57;;;;;;;28.67;23.33;;;;;;;;;;5142136;27;20042;-63
2020/12/09 06:16:22;;;;;;;33.45;24.30;;;;;;;;;;5145227;27;20035;-63
2020/12/09 06:18:50;;;;;;;32.70;25.02;;;;;;;;;;5147921;27;20096;-63
2020/12/09 06:21:16;;;;;;;30.33;23.13;;;;;;;;;;5140197;27;20042;-62
2020/12/09 06:23:42;;;;;;;33.83;23.73;;;;;;;;;;5142198;27;20364;-62
2020/12/09 06:26:07;;;;;;;34.58;25.15;;;;;;;;;;5147424;27;20083;-63
2020/12/09 06:28:36;;;;;;;30.95;25.42;;;;;;;;;;5144220;27;20528;-63
2020/12/09 06:31:18;;;;;;;31.90;25.02;;;;;;;;;;5142440;27;20260;-63
2020/12/09 06:33:44;;;;;;;30.05;22.92;;;;;;;;;;5137235;27;20058;-63
2020/12/09 06:36:29;;;;;;;35.03;23.55;;;;;;;;;;5143990;27;20125;-63
2020/12/09 06:39:04;;;;;;;32.05;22.35;;;;;;;;;;5138767;27;20125;-63
2020/12/09 06:41:36;;;;;;;34.15;25.85;;;;;;;;;;5130172;27;20080;-63
2020/12/09 06:44:06;;;;;;;34.22;25.35;;;;;;;;;;5140858;27;20027;-62
2020/12/09 06:46:39;;;;;;;35.05;25.48;;;;;;;;;;5148323;27;20030;-62
2020/12/09 06:49:28;;;;;;;36.13;25.55;;;;;;;;;;5142411;27;20461;-62
2020/12/09 06:51:57;;;;;;;34.20;24.65;;;;;;;;;;5123589;27;20035;-63
2020/12/09 06:54:41;;;;;;;33.63;24.77;;;;;;;;;;5117406;27;20038;-63
2020/12/09 06:57:29;;;;;;;32.97;25.17;;;;;;;;;;5148485;27;20046;-62
2020/12/09 07:00:10;;;;;;;36.00;24.73;;;;;;;;;;5143230;27;20049;-63
2020/12/09 07:02:36;;;;;;;32.95;25.23;;;;;;;;;;5148063;27;20115;-63
2020/12/09 07:05:01;;;;;;;32.33;23.35;;;;;;;;;;5145506;27;20076;-62
2020/12/09 07:07:34;;;;;;;35.10;24.40;;;;;;;;;;5146545;27;20031;-63
2020/12/09 07:10:01;;;;;;;45.08;31.58;;;;;;;;;;5148872;27;20045;-64
2020/12/09 07:12:27;;;;;;;32.30;26.10;;;;;;;;;;5147620;27;20030;-64
2020/12/09 07:14:54;;;;;;;39.88;27.25;;;;;;;;;;5142036;27;20109;-63
2020/12/09 07:17:25;;;;;;;31.92;24.13;;;;;;;;;;5147140;27;20053;-63
2020/12/09 07:19:51;;;;;;;38.50;24.73;;;;;;;;;;5144882;27;20794;-63
2020/12/09 07:22:17;;;;;;;35.50;24.65;;;;;;;;;;5144823;27;20099;-62
2020/12/09 07:24:43;;;;;;;33.95;25.00;;;;;;;;;;5136911;27;20117;-63
2020/12/09 07:27:12;;;;;;;37.42;25.58;;;;;;;;;;5140610;27;20031;-63
2020/12/09 07:29:42;;;;;;;37.25;25.50;;;;;;;;;;5138728;27;20038;-62
2020/12/09 07:32:08;;;;;;;33.58;26.05;;;;;;;;;;5148998;27;20023;-62
2020/12/09 07:34:57;;;;;;;35.53;25.50;;;;;;;;;;5138584;27;20060;-62
2020/12/09 07:37:25;;;;;;;32.83;25.80;;;;;;;;;;5126635;27;20043;-62
2020/12/09 07:39:52;;;;;;;40.80;26.88;;;;;;;;;;5108864;27;20039;-62
2020/12/09 07:42:21;;;;;;;33.78;25.85;;;;;;;;;;5139899;27;20954;-63
2020/12/09 07:44:47;;;;;;;34.08;26.02;;;;;;;;;;5134081;27;20031;-63
2020/12/09 07:47:13;;;;;;;35.97;24.73;;;;;;;;;;5140753;27;20034;-63
2020/12/09 07:49:53;;;;;;;37.97;25.27;;;;;;;;;;5130047;27;20350;-63
2020/12/09 07:52:28;;;;;;;34.92;24.88;;;;;;;;;;5136400;27;20065;-62
2020/12/09 07:55:04;;;;;;;38.20;26.02;;;;;;;;;;5123930;27;20569;-63
2020/12/09 07:57:31;;;;;;;35.40;25.98;;;;;;;;;;5147004;27;20031;-63
2020/12/09 07:59:57;;;;;;;33.42;26.80;;;;;;;;;;5147835;27;20026;-63
2020/12/09 08:02:25;;;;;;;32.58;25.40;;;;;;;;;;5139743;27;20069;-63
2020/12/09 08:05:21;;;;;;;34.92;25.90;;;;;;;;;;5145505;27;20030;-63
2020/12/09 08:07:55;;;;;;;31.75;24.58;;;;;;;;;;5144196;27;20079;-63
2020/12/09 08:10:26;;;;;;;35.90;27.55;;;;;;;;;;5147686;27;20031;-63
2020/12/09 08:13:06;;;;;;;30.20;24.25;;;;;;;;;;5152835;27;20027;-63
2020/12/09 08:15:33;;;;;;;34.17;26.08;;;;;;;;;;5149696;27;20069;-63
2020/12/09 08:17:59;;;;;;;32.53;25.30;;;;;;;;;;5151546;27;20038;-63
2020/12/09 08:20:25;;;;;;;35.80;25.20;;;;;;;;;;5152693;27;20034;-63
2020/12/09 08:22:51;;;;;;;38.20;27.25;;;;;;;;;;5153830;27;20033;-63
2020/12/09 08:25:16;;;;;;;32.92;25.52;;;;;;;;;;5147703;27;20046;-63
2020/12/09 08:27:44;;;;;;;39.22;27.70;;;;;;;;;;5153743;27;20038;-63
2020/12/09 08:30:24;;;;;;;38.00;26.63;;;;;;;;;;5153038;27;20054;-63
2020/12/09 08:33:05;;;;;;;33.83;26.08;;;;;;;;;;5149332;27;20056;-63
2020/12/09 08:35:50;;;;;;;40.43;26.40;;;;;;;;;;5150372;27;20420;-63
2020/12/09 08:38:29;;;;;;;36.88;26.08;;;;;;;;;;5151674;27;20034;-63
2020/12/09 08:41:00;;;;;;;34.70;24.52;;;;;;;;;;5153724;27;20054;-63
2020/12/09 08:43:26;;;;;;;;;;;;;;;;;;5151146;27;20031;-63
2020/12/09 08:45:52;;;;;;;34.67;25.17;;;;;;;;;;5151996;27;19926;-63
2020/12/09 08:48:18;;;;;;;35.28;26.27;;;;;;;;;;5148636;27;20031;-63
2020/12/09 08:50:44;;;;;;;34.78;27.17;;;;;;;;;;5154924;27;20038;-63
2020/12/09 08:53:09;;;;;;;38.97;27.67;;;;;;;;;;5150480;27;20034;-63
2020/12/09 08:55:35;;;;;;;32.15;24.52;;;;;;;;;;5152999;27;20023;-63
2020/12/09 08:58:00;;;;;;;41.78;27.38;;;;;;;;;;5152764;27;20483;-63
2020/12/09 09:00:25;;;;;;;35.70;26.40;;;;;;;;;;5151922;27;20133;-63
2020/12/09 09:02:51;;;;;;;32.42;25.55;;;;;;;;;;5150985;27;20069;-63
2020/12/09 09:05:16;;;;;;;37.75;27.48;;;;;;;;;;5151847;27;20150;-63
2020/12/09 09:07:41;;;;;;;31.52;25.08;;;;;;;;;;5152973;27;20599;-63
2020/12/09 09:10:07;;;;;;;31.48;25.00;;;;;;;;;;5152369;27;20364;-63
2020/12/09 09:12:33;;;;;;;37.08;26.35;;;;;;;;;;5150266;27;20034;-63
2020/12/09 09:14:58;;;;;;;46.67;27.35;;;;;;;;;;5152492;27;20087;-63
2020/12/09 09:17:24;;;;;;;42.75;26.73;;;;;;;;;;5134645;27;20043;-63
2020/12/09 09:19:49;;;;;;;36.90;26.80;;;;;;;;;;5150428;27;20035;-63
2020/12/09 09:22:14;;;;;;;38.15;26.65;;;;;;;;;;5151579;27;20122;-63
2020/12/09 09:24:40;;;;;;;36.40;26.75;;;;;;;;;;5152495;27;20026;-63
2020/12/09 09:27:11;;;;;;;39.35;27.02;;;;;;;;;;5145589;27;20027;-63
2020/12/09 09:29:37;;;;;;;36.50;26.65;;;;;;;;;;5142695;27;20118;-63
2020/12/09 09:32:02;;;;;;;42.45;26.35;;;;;;;;;;5154458;27;20117;-63
2020/12/09 09:34:28;;;;;;;32.13;25.13;;;;;;;;;;5151199;27;20647;-63
2020/12/09 09:36:53;;;;;;;37.85;25.80;;;;;;;;;;5151421;27;20102;-63
2020/12/09 09:39:18;;;;;;;35.03;25.65;;;;;;;;;;5151763;27;20122;-63
2020/12/09 09:41:44;;;;;;;33.95;25.15;;;;;;;;;;5152283;27;20027;-63
2020/12/09 09:44:09;;;;;;;36.63;27.77;;;;;;;;;;5147612;27;20023;-63
2020/12/09 09:46:35;;;;;;;32.90;26.30;;;;;;;;;;5151530;27;20031;-63
2020/12/09 09:49:00;;;;;;;33.50;26.23;;;;;;;;;;5151791;27;20110;-63
2020/12/09 09:51:25;;;;;;;32.38;27.23;;;;;;;;;;5151281;27;20981;-63
2020/12/09 09:53:51;;;;;;;41.30;28.10;;;;;;;;;;5150827;27;20079;-63
2020/12/09 09:56:16;;;;;;;37.83;27.15;;;;;;;;;;5134280;27;20105;-63
2020/12/09 09:58:41;;;;;;;42.17;26.70;;;;;;;;;;5151909;27;20030;-63
2020/12/09 10:01:07;;;;;;;34.83;27.40;;;;;;;;;;5151232;27;20107;-63
2020/12/09 10:03:32;;;;;;;31.40;24.75;;;;;;;;;;5132262;27;20035;-63
2020/12/09 10:05:57;;;;;;;34.40;27.08;;;;;;;;;;5137362;27;20456;-63
2020/12/09 10:08:23;;;;;;;36.33;27.02;;;;;;;;;;5150666;27;20026;-62
2020/12/09 10:10:48;;;;;;;35.65;25.98;;;;;;;;;;5150289;27;20086;-62
2020/12/09 10:13:14;;;;;;;33.10;25.73;;;;;;;;;;5150738;27;20096;-63
2020/12/09 10:15:39;;;;;;;34.92;25.90;;;;;;;;;;5151570;27;20349;-62
2020/12/09 10:18:05;;;;;;;35.20;26.98;;;;;;;;;;5150818;27;20030;-62
2020/12/09 10:20:30;;;;;;;37.08;27.58;;;;;;;;;;5149138;27;20571;-63
2020/12/09 10:22:56;;;;;;;31.67;25.10;;;;;;;;;;5139797;27;20049;-62
2020/12/09 10:25:23;;;;;;;35.50;27.42;;;;;;;;;;5139792;27;20120;-70
2020/12/09 10:27:48;;;;;;;35.40;26.17;;;;;;;;;;5146743;27;20030;-62
2020/12/09 10:30:14;;;;;;;34.25;26.65;;;;;;;;;;5148640;27;20361;-70
2020/12/09 10:32:39;;;;;;;36.22;26.65;;;;;;;;;;5144343;27;20031;-67
2020/12/09 10:35:05;;;;;;;34.70;26.75;;;;;;;;;;5147227;27;20066;-70
2020/12/09 10:37:31;;;;;;;36.85;30.33;;;;;;;;;;5146140;27;20034;-70
2020/12/09 10:39:56;;;;;;;38.28;28.70;;;;;;;;;;5148212;27;20035;-71
2020/12/09 10:42:22;;;;;;;42.28;30.55;;;;;;;;;;5147888;27;20057;-62
2020/12/09 10:44:48;;;;;;;38.63;27.60;;;;;;;;;;5146837;27;20031;-62
2020/12/09 10:47:14;;;;;;;35.67;25.83;;;;;;;;;;5129718;27;20030;-62
2020/12/09 10:49:44;;;;;;;33.35;26.55;;;;;;;;;;5143161;27;20511;-62
2020/12/09 10:52:10;;;;;;;35.95;27.88;;;;;;;;;;5142745;27;20601;-62
2020/12/09 10:54:35;;;;;;;32.55;25.77;;;;;;;;;;5149374;27;20084;-61
2020/12/09 10:57:01;;;;;;;34.75;27.08;;;;;;;;;;5144403;27;20366;-61
2020/12/09 10:59:27;;;;;;;33.53;25.90;;;;;;;;;;5135483;27;20123;-61
2020/12/09 11:01:54;;;;;;;33.13;25.77;;;;;;;;;;5142254;27;21496;-61
2020/12/09 11:04:19;;;;;;;38.58;28.80;;;;;;;;;;5143456;27;20035;-60
2020/12/09 11:06:44;;;;;;;34.85;26.80;;;;;;;;;;5142584;27;20079;-60
2020/12/09 11:09:10;;;;;;;39.08;27.17;;;;;;;;;;5143183;27;20106;-60
2020/12/09 11:11:36;;;;;;;40.67;28.42;;;;;;;;;;5149219;27;20043;-60
2020/12/09 11:14:02;;;;;;;33.47;26.60;;;;;;;;;;5136802;27;20027;-60
2020/12/09 11:16:28;;;;;;;31.77;25.75;;;;;;;;;;5140426;27;20069;-60
2020/12/09 11:18:53;;;;;;;36.67;26.85;;;;;;;;;;5139140;27;20492;-60
2020/12/09 11:21:21;;;;;;;36.20;26.52;;;;;;;;;;5143905;27;20492;-61
2020/12/09 11:23:48;;;;;;;33.88;27.42;;;;;;;;;;5145741;27;20026;-60
2020/12/09 11:26:18;;;;;;;37.75;27.52;;;;;;;;;;5127842;27;20143;-61
2020/12/09 11:28:44;;;;;;;32.15;25.00;;;;;;;;;;5147437;27;20090;-60
2020/12/09 11:31:09;;;;;;;37.55;27.00;;;;;;;;;;5145886;27;20819;-61
2020/12/09 11:33:35;;;;;;;32.80;24.50;;;;;;;;;;5151238;27;20041;-62
2020/12/09 11:36:01;;;;;;;31.33;25.23;;;;;;;;;;5139625;27;20042;-62
2020/12/09 11:38:27;;;;;;;34.92;25.80;;;;;;;;;;5148768;27;20144;-62
2020/12/09 11:40:52;;;;;;;32.47;26.83;;;;;;;;;;5145201;27;20073;-62
2020/12/09 11:43:18;;;;;;;36.88;27.05;;;;;;;;;;5144509;27;20447;-61
2020/12/09 11:45:43;;;;;;;37.85;27.85;;;;;;;;;;5147713;27;20066;-62
2020/12/09 11:48:08;;;;;;;40.70;25.70;;;;;;;;;;5145089;27;20031;-64
2020/12/09 11:50:34;;;;;;;37.45;25.70;;;;;;;;;;5147859;27;20168;-62
2020/12/09 11:53:00;;;;;;;39.58;26.92;;;;;;;;;;5136913;27;20167;-61
2020/12/09 11:55:25;;;;;;;31.40;25.30;;;;;;;;;;5147145;27;20035;-63
2020/12/09 11:57:50;;;;;;;35.10;27.05;;;;;;;;;;5149896;27;20030;-64
2020/12/09 12:00:16;;;;;;;31.90;26.90;;;;;;;;;;5141699;27;20031;-64
2020/12/09 12:02:41;;;;;;;37.03;25.63;;;;;;;;;;5144725;27;20034;-64
2020/12/09 12:05:08;;;;;;;33.30;26.02;;;;;;;;;;5141598;27;20051;-62
2020/12/09 12:07:36;;;;;;;36.00;28.05;;;;;;;;;;5149236;27;20460;-64
2020/12/09 12:10:03;;;;;;;32.10;24.90;;;;;;;;;;5148814;27;20034;-64
2020/12/09 12:12:29;;;;;;;36.78;26.45;;;;;;;;;;5149671;27;20117;-62
2020/12/09 12:14:54;;;;;;;35.00;25.42;;;;;;;;;;5146235;27;20125;-63
2020/12/09 12:17:19;;;;;;;38.00;26.77;;;;;;;;;;5150727;27;21885;-63
2020/12/09 12:19:45;;;;;;;33.60;25.35;;;;;;;;;;5152768;27;20083;-62
2020/12/09 12:22:10;;;;;;;34.70;26.80;;;;;;;;;;5147650;27;20023;-62
2020/12/09 12:24:35;;;;;;;41.38;28.38;;;;;;;;;;5126189;27;20030;-63
2020/12/09 12:27:01;;;;;;;34.40;26.27;;;;;;;;;;5150668;27;20086;-63
2020/12/09 12:29:26;;;;;;;35.05;26.10;;;;;;;;;;5145567;27;20030;-63
2020/12/09 12:31:52;;;;;;;42.95;29.15;;;;;;;;;;5151572;27;20077;-63
2020/12/09 12:34:17;;;;;;;37.50;27.48;;;;;;;;;;5149448;27;20039;-62
2020/12/09 12:36:42;;;;;;;34.15;26.92;;;;;;;;;;5151929;27;20042;-61
2020/12/09 12:39:08;;;;;;;37.65;25.92;;;;;;;;;;5134784;27;20035;-61
2020/12/09 12:41:34;;;;;;;35.58;25.77;;;;;;;;;;5146403;27;20046;-61
2020/12/09 12:43:59;;;;;;;36.08;26.88;;;;;;;;;;5150413;27;20022;-62
2020/12/09 12:46:25;;;;;;;36.55;27.15;;;;;;;;;;5149507;27;20049;-61
2020/12/09 12:48:50;;;;;;;33.72;26.35;;;;;;;;;;5150855;27;20071;-60
2020/12/09 12:51:20;;;;;;;33.78;26.30;;;;;;;;;;5150110;27;20026;-60
2020/12/09 12:53:45;;;;;;;34.92;27.67;;;;;;;;;;5151879;27;20114;-61
2020/12/09 12:56:19;;;;;;;36.75;25.45;;;;;;;;;;5145055;27;20454;-61
2020/12/09 12:58:46;;;;;;;45.95;28.90;;;;;;;;;;5145710;27;20453;-61
2020/12/09 13:01:11;;;;;;;35.75;28.95;;;;;;;;;;5146349;27;20112;-62
2020/12/09 13:03:37;;;;;;;42.90;28.85;;;;;;;;;;5151109;27;20056;-63
2020/12/09 13:06:02;;;;;;;33.78;26.95;;;;;;;;;;5134054;27;20095;-63
2020/12/09 13:08:27;;;;;;;35.85;25.90;;;;;;;;;;5149457;27;20031;-63
2020/12/09 13:10:53;;;;;;;36.53;27.33;;;;;;;;;;5150319;27;20836;-62
2020/12/09 13:13:18;;;;;;;33.90;25.73;;;;;;;;;;5142832;27;20047;-61
2020/12/09 13:15:44;;;;;;;33.33;24.58;;;;;;;;;;5145983;27;20060;-62
2020/12/09 13:18:10;;;;;;;33.75;26.55;;;;;;;;;;5148073;27;20030;-62
2020/12/09 13:20:35;;;;;;;34.60;24.17;;;;;;;;;;5149634;27;20041;-62
2020/12/09 13:23:00;;;;;;;38.85;24.50;;;;;;;;;;5147993;27;20022;-61
2020/12/09 13:25:26;;;;;;;37.85;24.85;;;;;;;;;;5145913;27;20867;-61
2020/12/09 13:27:51;;;;;;;35.10;23.60;;;;;;;;;;5149991;27;20037;-62
2020/12/09 13:30:17;;;;;;;29.45;21.67;;;;;;;;;;5150017;27;20042;-62
2020/12/09 13:32:42;;;;;;;35.00;23.20;;;;;;;;;;5145202;27;20026;-62
2020/12/09 13:35:07;;;;;;;36.20;23.13;;;;;;;;;;5141448;27;20353;-62
2020/12/09 13:37:33;;;;;;;32.47;22.98;;;;;;;;;;5145471;27;20511;-62
2020/12/09 13:39:58;;;;;;;30.48;22.15;;;;;;;;;;5147196;27;20470;-62
2020/12/09 13:42:24;;;;;;;29.02;21.15;;;;;;;;;;5146869;27;20022;-62
2020/12/09 13:44:49;;;;;;;30.27;21.83;;;;;;;;;;5147688;27;20057;-62
2020/12/09 13:47:15;;;;;;;27.38;20.17;;;;;;;;;;5140886;27;20027;-62
2020/12/09 13:49:40;;;;;;;29.58;21.42;;;;;;;;;;5143254;27;20038;-61
2020/12/09 13:52:05;;;;;;;28.63;20.45;;;;;;;;;;5148071;27;20023;-62
2020/12/09 13:54:31;;;;;;;29.38;20.67;;;;;;;;;;5147807;27;20605;-62
2020/12/09 13:56:56;;;;;;;27.80;21.23;;;;;;;;;;5147499;27;20427;-62
2020/12/09 13:59:21;;;;;;;27.60;20.60;;;;;;;;;;5120665;27;20041;-61
2020/12/09 14:01:48;;;;;;;26.20;19.33;;;;;;;;;;5126120;27;20072;-62
2020/12/09 14:04:13;;;;;;;29.42;20.33;;;;;;;;;;5145727;27;20046;-61
2020/12/09 14:06:39;;;;;;;24.60;19.70;;;;;;;;;;5149651;27;20034;-61
2020/12/09 14:09:04;;;;;;;33.40;21.33;;;;;;;;;;5142032;27;20035;-61
2020/12/09 14:11:31;;;;;;;29.70;19.90;;;;;;;;;;5147068;27;20038;-67
2020/12/09 14:13:58;;;;;;;26.10;20.77;;;;;;;;;;5138801;27;20107;-62
2020/12/09 14:16:30;;;;;;;27.02;19.98;;;;;;;;;;5149093;27;20086;-61
2020/12/09 14:18:55;;;;;;;28.30;19.55;;;;;;;;;;5143016;27;20627;-61